createdAt,value
2023-10-23T00:02:04.537Z,13.98
2023-10-23T00:04:31.930Z,13.99
2023-10-23T00:07:00.098Z,14.00
2023-10-23T00:09:27.468Z,14.00
2023-10-23T00:11:54.745Z,14.00
2023-10-23T00:14:22.545Z,14.01
2023-10-23T00:16:49.912Z,14.01
2023-10-23T00:19:17.370Z,14.01
2023-10-23T00:21:45.802Z,13.99
2023-10-23T00:24:13.253Z,13.98
2023-10-23T00:26:40.542Z,13.96
2023-10-23T00:29:07.857Z,13.95
2023-10-23T00:31:35.232Z,13.93
2023-10-23T00:34:02.751Z,13.92
2023-10-23T00:36:30.114Z,13.91
2023-10-23T00:38:57.664Z,13.91
2023-10-23T00:41:24.942Z,13.91
2023-10-23T00:43:52.331Z,13.91
2023-10-23T00:46:20.688Z,13.92
2023-10-23T00:48:48.348Z,13.93
2023-10-23T00:51:16.183Z,13.93
2023-10-23T00:53:43.895Z,13.93
2023-10-23T00:56:11.431Z,13.92
2023-10-23T00:58:42.701Z,13.91
2023-10-23T01:01:13.201Z,13.88
2023-10-23T01:06:08.861Z,13.81
2023-10-23T01:08:37.394Z,13.78
2023-10-23T01:11:04.695Z,13.75
2023-10-23T01:13:32.153Z,13.73
2023-10-23T01:15:59.527Z,13.71
2023-10-23T01:18:26.888Z,13.70
2023-10-23T01:20:54.350Z,13.69
2023-10-23T01:23:25.101Z,13.69
2023-10-23T01:25:53.132Z,13.69
2023-10-23T01:28:20.408Z,13.69
2023-10-23T01:30:48.679Z,13.69
2023-10-23T01:33:17.716Z,13.69
2023-10-23T01:35:45.097Z,13.69
2023-10-23T01:38:14.295Z,13.69
2023-10-23T01:40:41.633Z,13.69
2023-10-23T01:43:08.988Z,13.68
2023-10-23T01:45:37.398Z,13.68
2023-10-23T01:48:05.660Z,13.67
2023-10-23T01:50:32.988Z,13.66
2023-10-23T01:53:00.345Z,13.64
2023-10-23T01:55:27.757Z,13.63
2023-10-23T01:57:58.578Z,13.63
2023-10-23T02:00:26.322Z,13.63
2023-10-23T02:02:55.168Z,13.63
2023-10-23T02:05:22.654Z,13.65
2023-10-23T02:07:49.899Z,13.66
2023-10-23T02:10:17.237Z,13.67
2023-10-23T02:12:44.605Z,13.68
2023-10-23T02:15:12.110Z,13.71
2023-10-23T02:17:39.631Z,13.72
2023-10-23T02:20:07.478Z,13.73
2023-10-23T02:22:35.653Z,13.73
2023-10-23T02:25:03.053Z,13.74
2023-10-23T02:27:30.391Z,13.76
2023-10-23T02:29:57.824Z,13.77
2023-10-23T02:32:25.186Z,13.79
2023-10-23T02:34:52.479Z,13.81
2023-10-23T02:37:19.803Z,13.82
2023-10-23T02:39:47.132Z,13.83
2023-10-23T02:42:14.449Z,13.84
2023-10-23T02:44:41.720Z,13.86
2023-10-23T02:47:09.286Z,13.85
2023-10-23T02:49:36.711Z,13.85
2023-10-23T02:52:04.854Z,13.84
2023-10-23T02:54:32.293Z,13.83
2023-10-23T02:56:59.645Z,13.81
2023-10-23T02:59:27.282Z,13.80
2023-10-23T03:01:54.626Z,13.79
2023-10-23T03:04:22.045Z,13.77
2023-10-23T03:06:49.457Z,13.76
2023-10-23T03:09:16.736Z,13.75
2023-10-23T03:11:44.080Z,13.73
2023-10-23T03:14:12.109Z,13.73
2023-10-23T03:16:39.596Z,13.71
2023-10-23T03:19:06.963Z,13.70
2023-10-23T03:21:34.339Z,13.69
2023-10-23T03:24:01.837Z,13.69
2023-10-23T03:26:29.531Z,13.68
2023-10-23T03:28:57.087Z,13.67
2023-10-23T03:31:24.477Z,13.66
2023-10-23T03:33:53.254Z,13.64
2023-10-23T03:36:20.746Z,13.63
2023-10-23T03:38:48.615Z,13.61
2023-10-23T03:41:15.915Z,13.61
2023-10-23T03:43:43.267Z,13.60
2023-10-23T03:46:11.197Z,13.60
2023-10-23T03:48:38.934Z,13.59
2023-10-23T03:51:06.326Z,13.58
2023-10-23T03:53:33.756Z,13.56
2023-10-23T03:56:01.284Z,13.54
2023-10-23T03:58:28.641Z,13.53
2023-10-23T04:00:56.031Z,13.52
2023-10-23T04:03:23.728Z,13.50
2023-10-23T04:05:51.223Z,13.49
2023-10-23T04:08:18.634Z,13.47
2023-10-23T04:10:47.906Z,13.45
2023-10-23T04:13:16.171Z,13.43
2023-10-23T04:16:03.985Z,13.42
2023-10-23T04:18:31.643Z,13.39
2023-10-23T04:22:53.812Z,13.37
2023-10-23T04:25:21.605Z,13.33
2023-10-23T04:27:49.043Z,13.32
2023-10-23T04:30:17.867Z,13.29
2023-10-23T04:32:45.375Z,13.27
2023-10-23T04:35:12.904Z,13.25
2023-10-23T04:37:40.215Z,13.23
2023-10-23T04:40:08.648Z,13.21
2023-10-23T04:42:36.082Z,13.20
2023-10-23T04:45:03.636Z,13.19
2023-10-23T04:47:30.989Z,13.19
2023-10-23T04:49:58.292Z,13.17
2023-10-23T04:52:25.620Z,13.18
2023-10-23T04:54:53.842Z,13.17
2023-10-23T04:57:21.207Z,13.17
2023-10-23T04:59:48.472Z,13.18
2023-10-23T05:02:15.846Z,13.18
2023-10-23T05:04:43.180Z,13.18
2023-10-23T05:07:10.688Z,13.18
2023-10-23T05:09:38.616Z,13.17
2023-10-23T05:12:06.578Z,13.17
2023-10-23T05:14:34.651Z,13.17
2023-10-23T05:17:01.994Z,13.17
2023-10-23T05:19:29.392Z,13.18
2023-10-23T05:21:56.688Z,13.20
2023-10-23T05:24:25.154Z,13.23
2023-10-23T05:26:53.046Z,13.27
2023-10-23T05:29:20.508Z,13.31
2023-10-23T05:31:48.375Z,13.36
2023-10-23T05:34:15.723Z,13.39
2023-10-23T05:36:43.029Z,13.42
2023-10-23T05:39:10.507Z,13.45
2023-10-23T05:41:37.833Z,13.48
2023-10-23T05:44:05.410Z,13.51
2023-10-23T05:46:32.889Z,13.54
2023-10-23T05:49:00.993Z,13.56
2023-10-23T05:51:28.443Z,13.57
2023-10-23T05:53:57.890Z,13.59
2023-10-23T05:56:25.253Z,13.62
2023-10-23T05:58:52.528Z,13.65
2023-10-23T06:01:19.964Z,13.68
2023-10-23T06:03:47.488Z,13.71
2023-10-23T06:06:14.945Z,13.74
2023-10-23T06:08:42.314Z,13.78
2023-10-23T06:11:13.106Z,13.81
2023-10-23T06:13:40.425Z,13.85
2023-10-23T06:16:08.495Z,13.89
2023-10-23T06:18:36.754Z,13.93
2023-10-23T06:21:05.525Z,13.98
2023-10-23T06:23:42.061Z,14.02
2023-10-23T06:26:09.610Z,14.06
2023-10-23T06:28:37.100Z,14.10
2023-10-23T06:31:08.328Z,14.14
2023-10-23T06:33:36.678Z,14.20
2023-10-23T06:36:10.490Z,14.27
2023-10-23T06:38:38.039Z,14.33
2023-10-23T06:41:06.352Z,14.39
2023-10-23T06:43:34.294Z,14.44
2023-10-23T06:46:02.982Z,14.49
2023-10-23T06:48:31.889Z,14.53
2023-10-23T06:50:59.762Z,14.57
2023-10-23T06:53:27.341Z,14.61
2023-10-23T06:55:55.294Z,14.65
2023-10-23T06:58:22.698Z,14.69
2023-10-23T07:00:50.123Z,14.72
2023-10-23T07:03:17.790Z,14.74
2023-10-23T07:05:45.263Z,14.77
2023-10-23T07:08:13.490Z,14.79
2023-10-23T07:10:40.810Z,14.81
2023-10-23T07:13:21.282Z,14.87
2023-10-23T07:15:53.090Z,14.95
2023-10-23T07:18:20.862Z,15.02
2023-10-23T07:20:55.983Z,15.06
2023-10-23T07:23:23.591Z,15.08
2023-10-23T07:26:04.682Z,15.10
2023-10-23T07:28:32.156Z,15.09
2023-10-23T07:31:02.796Z,15.10
2023-10-23T07:33:30.137Z,15.12
2023-10-23T07:36:08.036Z,15.16
2023-10-23T07:38:37.013Z,15.18
2023-10-23T07:41:04.608Z,15.18
2023-10-23T07:43:32.184Z,15.18
2023-10-23T07:46:14.576Z,15.19
2023-10-23T07:48:43.752Z,15.22
2023-10-23T07:51:11.212Z,15.24
2023-10-23T07:53:38.591Z,15.27
2023-10-23T07:56:06.169Z,15.30
2023-10-23T07:58:33.683Z,15.34
2023-10-23T08:01:12.079Z,15.38
2023-10-23T08:03:39.954Z,15.39
2023-10-23T08:06:08.638Z,15.36
2023-10-23T08:08:36.900Z,15.34
2023-10-23T08:11:04.947Z,15.31
2023-10-23T08:13:32.659Z,15.31
2023-10-23T08:16:01.277Z,15.35
2023-10-23T08:18:38.168Z,15.41
2023-10-23T08:21:09.762Z,15.48
2023-10-23T08:23:37.141Z,15.53
2023-10-23T08:26:05.140Z,15.60
2023-10-23T08:28:49.407Z,15.68
2023-10-23T08:31:37.007Z,15.79
2023-10-23T08:34:07.351Z,15.88
2023-10-23T08:36:35.425Z,15.95
2023-10-23T08:39:04.372Z,15.99
2023-10-23T08:41:32.391Z,16.03
2023-10-23T08:43:59.754Z,16.04
2023-10-23T08:46:28.188Z,16.04
2023-10-23T08:48:55.714Z,16.06
2023-10-23T08:51:23.098Z,16.09
2023-10-23T08:56:21.561Z,16.12
2023-10-23T08:58:53.626Z,16.14
2023-10-23T09:01:21.028Z,16.19
2023-10-23T09:04:05.154Z,16.21
2023-10-23T09:06:34.398Z,16.23
2023-10-23T09:09:02.035Z,16.24
2023-10-23T09:11:45.990Z,16.23
2023-10-23T09:14:32.264Z,16.22
2023-10-23T09:17:00.735Z,16.23
2023-10-23T09:19:31.022Z,16.22
2023-10-23T09:21:58.677Z,16.20
2023-10-23T09:24:26.102Z,16.17
2023-10-23T09:26:53.599Z,16.13
2023-10-23T09:29:24.821Z,16.12
2023-10-23T09:31:53.046Z,16.12
2023-10-23T09:34:20.682Z,16.15
2023-10-23T09:36:49.180Z,16.18
2023-10-23T09:39:17.003Z,16.22
2023-10-23T09:41:48.922Z,16.22
2023-10-23T09:44:16.580Z,16.25
2023-10-23T09:46:43.985Z,16.29
2023-10-23T09:49:12.079Z,16.33
2023-10-23T09:51:43.126Z,16.36
2023-10-23T09:54:16.790Z,16.40
2023-10-23T09:56:52.013Z,16.42
2023-10-23T09:59:22.123Z,16.43
2023-10-23T10:01:51.538Z,16.46
2023-10-23T10:04:34.377Z,16.51
2023-10-23T10:07:06.050Z,16.53
2023-10-23T10:09:33.473Z,16.49
2023-10-23T10:12:00.789Z,16.46
2023-10-23T10:14:28.364Z,16.41
2023-10-23T10:16:58.689Z,16.34
2023-10-23T10:19:26.801Z,16.27
2023-10-23T10:22:02.386Z,16.23
2023-10-23T10:24:29.719Z,16.19
2023-10-23T10:26:57.126Z,16.20
2023-10-23T10:29:26.909Z,16.26
2023-10-23T10:32:12.070Z,16.31
2023-10-23T10:34:46.477Z,16.29
2023-10-23T10:39:49.332Z,16.30
2023-10-23T10:42:27.161Z,16.29
2023-10-23T10:44:55.352Z,16.29
2023-10-23T10:47:46.987Z,16.30
2023-10-23T10:50:30.403Z,16.28
2023-10-23T10:53:01.041Z,16.23
2023-10-23T10:55:28.487Z,16.20
2023-10-23T10:57:55.910Z,16.17
2023-10-23T11:00:26.666Z,16.14
2023-10-23T11:02:56.756Z,16.13
2023-10-23T11:05:24.572Z,16.14
2023-10-23T11:07:53.049Z,16.16
2023-10-23T11:10:21.758Z,16.20
2023-10-23T11:12:51.209Z,16.25
2023-10-23T11:15:19.373Z,16.32
2023-10-23T11:17:47.005Z,16.35
2023-10-23T11:20:14.892Z,16.36
2023-10-23T11:22:45.963Z,16.38
2023-10-23T11:25:13.399Z,16.42
2023-10-23T11:27:41.122Z,16.45
2023-10-23T11:30:09.046Z,16.47
2023-10-23T11:32:36.506Z,16.49
2023-10-23T11:35:05.693Z,16.50
2023-10-23T11:37:42.445Z,16.50
2023-10-23T11:40:11.347Z,16.54
2023-10-23T11:42:49.599Z,16.58
2023-10-23T11:45:18.478Z,16.63
2023-10-23T11:47:46.432Z,16.69
2023-10-23T11:50:14.366Z,16.73
2023-10-23T11:52:45.031Z,16.76
2023-10-23T11:55:21.575Z,16.75
2023-10-23T11:57:51.850Z,16.73
2023-10-23T12:00:21.329Z,16.72
2023-10-23T12:02:48.907Z,16.68
2023-10-23T12:05:18.090Z,16.65
2023-10-23T12:07:49.920Z,16.62
2023-10-23T12:10:20.260Z,16.62
2023-10-23T12:12:48.094Z,16.61
2023-10-23T12:15:16.308Z,16.58
2023-10-23T12:17:43.714Z,16.56
2023-10-23T12:20:13.125Z,16.56
2023-10-23T12:22:42.740Z,16.56
2023-10-23T12:25:10.707Z,16.55
2023-10-23T12:27:38.428Z,16.54
2023-10-23T12:30:09.377Z,16.51
2023-10-23T12:33:14.316Z,16.49
2023-10-23T12:35:25.231Z,16.45
2023-10-23T12:37:52.623Z,16.42
2023-10-23T12:40:20.151Z,16.40
2023-10-23T12:42:47.622Z,16.38
2023-10-23T12:45:14.958Z,16.33
2023-10-23T12:47:42.380Z,16.29
2023-10-23T12:50:10.004Z,16.22
2023-10-23T12:52:37.348Z,16.16
2023-10-23T12:55:05.617Z,16.10
2023-10-23T12:57:32.949Z,16.05
2023-10-23T13:00:00.413Z,16.00
2023-10-23T13:02:27.743Z,15.96
2023-10-23T13:04:55.244Z,15.93
2023-10-23T13:07:22.710Z,15.92
2023-10-23T13:09:50.152Z,15.92
2023-10-23T13:12:17.676Z,15.94
2023-10-23T13:14:45.010Z,15.94
2023-10-23T13:17:12.447Z,15.92
2023-10-23T13:19:39.966Z,15.88
2023-10-23T13:22:11.878Z,15.84
2023-10-23T13:24:39.383Z,15.80
2023-10-23T13:27:06.809Z,15.75
2023-10-23T13:29:34.182Z,15.71
2023-10-23T13:32:01.671Z,15.66
2023-10-23T13:34:29.089Z,15.64
2023-10-23T13:36:57.125Z,15.61
2023-10-23T13:39:24.466Z,15.59
2023-10-23T13:41:51.900Z,15.56
2023-10-23T13:44:19.186Z,15.54
2023-10-23T13:46:46.788Z,15.52
2023-10-23T13:49:14.112Z,15.53
2023-10-23T13:51:41.574Z,15.53
2023-10-23T13:54:08.967Z,15.49
2023-10-23T13:56:37.132Z,15.44
2023-10-23T13:59:04.482Z,15.39
2023-10-23T14:01:31.941Z,15.31
2023-10-23T14:03:59.577Z,15.22
2023-10-23T14:06:28.731Z,15.14
2023-10-23T14:09:41.850Z,15.05
2023-10-23T14:11:59.782Z,14.96
2023-10-23T14:14:29.639Z,14.88
2023-10-23T14:16:59.361Z,14.80
2023-10-23T14:19:42.551Z,14.73
2023-10-23T14:22:13.938Z,14.70
2023-10-23T14:24:41.567Z,14.68
2023-10-23T14:27:10.412Z,14.67
2023-10-23T14:29:38.584Z,14.66
2023-10-23T14:32:07.144Z,14.65
2023-10-23T14:34:34.713Z,14.64
2023-10-23T14:37:02.209Z,14.61
2023-10-23T14:39:30.745Z,14.58
2023-10-23T14:41:58.217Z,14.53
2023-10-23T14:44:25.713Z,14.50
2023-10-23T14:46:53.403Z,14.46
2023-10-23T14:49:22.632Z,14.43
2023-10-23T14:51:53.687Z,14.38
2023-10-23T14:54:21.140Z,14.34
2023-10-23T14:56:51.339Z,14.32
2023-10-23T14:59:18.975Z,14.32
2023-10-23T15:01:46.465Z,14.33
2023-10-23T15:04:14.370Z,14.33
2023-10-23T15:06:41.707Z,14.33
2023-10-23T15:09:09.009Z,14.33
2023-10-23T15:11:36.258Z,14.31
2023-10-23T15:14:05.103Z,14.28
2023-10-23T15:16:34.591Z,14.25
2023-10-23T15:19:04.195Z,14.20
2023-10-23T15:21:31.836Z,14.17
2023-10-23T15:23:59.752Z,14.12
2023-10-23T15:26:27.145Z,14.07
2023-10-23T15:28:54.545Z,14.03
2023-10-23T15:31:21.927Z,14.01
2023-10-23T15:33:49.375Z,13.98
2023-10-23T15:36:16.690Z,13.97
2023-10-23T15:38:44.032Z,13.95
2023-10-23T15:41:12.510Z,13.92
2023-10-23T15:43:40.738Z,13.89
2023-10-23T15:46:15.818Z,13.85
2023-10-23T15:48:43.450Z,13.80
2023-10-23T15:51:10.803Z,13.74
2023-10-23T15:53:38.360Z,13.68
2023-10-23T15:56:05.987Z,13.62
2023-10-23T15:58:35.822Z,13.59
2023-10-23T16:01:07.906Z,13.56
2023-10-23T16:03:35.785Z,13.53
2023-10-23T16:06:04.983Z,13.53
2023-10-23T16:08:32.289Z,13.51
2023-10-23T16:11:00.311Z,13.50
2023-10-23T16:13:32.552Z,13.48
2023-10-23T16:16:14.989Z,13.46
2023-10-23T16:18:45.868Z,13.44
2023-10-23T16:21:14.364Z,13.41
2023-10-23T16:23:41.649Z,13.37
2023-10-23T16:26:08.927Z,13.34
2023-10-23T16:28:36.380Z,13.32
2023-10-23T16:31:04.007Z,13.31
2023-10-23T16:33:31.829Z,13.31
2023-10-23T16:35:59.217Z,13.31
2023-10-23T16:39:40.476Z,13.34
2023-10-23T16:42:08.010Z,13.33
2023-10-23T16:44:52.436Z,13.33
2023-10-23T16:47:22.907Z,13.31
2023-10-23T16:49:50.519Z,13.28
2023-10-23T16:52:17.859Z,13.26
2023-10-23T16:54:47.688Z,13.23
2023-10-23T16:57:15.226Z,13.22
2023-10-23T16:59:42.613Z,13.21
2023-10-23T17:02:10.622Z,13.21
2023-10-23T17:04:38.640Z,13.21
2023-10-23T17:07:06.027Z,13.20
2023-10-23T17:09:33.532Z,13.18
2023-10-23T17:12:00.949Z,13.16
2023-10-23T17:14:28.470Z,13.15
2023-10-23T17:16:55.907Z,13.14
2023-10-23T17:19:23.271Z,13.14
2023-10-23T17:21:50.708Z,13.16
2023-10-23T17:24:18.062Z,13.19
2023-10-23T17:26:45.484Z,13.21
2023-10-23T17:29:12.755Z,13.24
2023-10-23T17:31:40.148Z,13.26
2023-10-23T17:34:07.723Z,13.27
2023-10-23T17:36:35.748Z,13.27
2023-10-23T17:39:03.248Z,13.26
2023-10-23T17:41:31.597Z,13.23
2023-10-23T17:43:58.914Z,13.21
2023-10-23T17:46:26.434Z,13.19
2023-10-23T17:48:53.908Z,13.20
2023-10-23T17:51:21.228Z,13.20
2023-10-23T17:56:18.778Z,13.21
2023-10-23T17:58:46.168Z,13.22
2023-10-23T18:01:14.047Z,13.22
2023-10-23T18:03:41.645Z,13.20
2023-10-23T18:06:11.358Z,13.17
2023-10-23T18:08:39.554Z,13.14
2023-10-23T18:11:11.326Z,13.12
2023-10-23T18:13:39.146Z,13.09
2023-10-23T18:16:07.591Z,13.07
2023-10-23T18:18:35.008Z,13.06
2023-10-23T18:21:04.968Z,13.05
2023-10-23T18:23:32.273Z,13.04
2023-10-23T18:26:01.112Z,13.01
2023-10-23T18:28:29.474Z,12.98
2023-10-23T18:30:58.878Z,12.94
2023-10-23T18:33:26.336Z,12.89
2023-10-23T18:36:01.306Z,12.83
2023-10-23T18:38:28.937Z,12.78
2023-10-23T18:40:56.606Z,12.74
2023-10-23T18:43:27.352Z,12.69
2023-10-23T18:45:56.078Z,12.66
2023-10-23T18:48:23.777Z,12.64
2023-10-23T18:51:01.156Z,12.62
2023-10-23T18:53:29.151Z,12.60
2023-10-23T18:55:56.449Z,12.56
2023-10-23T18:58:24.099Z,12.52
2023-10-23T19:00:52.203Z,12.48
2023-10-23T19:03:19.652Z,12.43
2023-10-23T19:05:47.044Z,12.39
2023-10-23T19:08:14.594Z,12.35
2023-10-23T19:10:41.955Z,12.33
2023-10-23T19:13:09.608Z,12.32
2023-10-23T19:15:36.990Z,12.30
2023-10-23T19:18:04.402Z,12.29
2023-10-23T19:20:32.174Z,12.26
2023-10-23T19:22:59.552Z,12.24
2023-10-23T19:25:28.643Z,12.21
2023-10-23T19:27:56.102Z,12.16
2023-10-23T19:30:23.736Z,12.12
2023-10-23T19:32:52.685Z,12.08
2023-10-23T19:35:20.706Z,12.05
2023-10-23T19:37:48.751Z,12.03
2023-10-23T19:40:16.726Z,12.01
2023-10-23T19:42:44.282Z,11.99
2023-10-23T19:45:12.344Z,11.97
2023-10-23T19:47:40.294Z,11.93
2023-10-23T19:50:10.299Z,11.90
2023-10-23T19:52:39.212Z,11.88
2023-10-23T19:55:42.700Z,11.85
2023-10-23T19:57:55.681Z,11.81
2023-10-23T20:00:23.258Z,11.77
2023-10-23T20:02:51.750Z,11.74
2023-10-23T20:05:19.904Z,11.71
2023-10-23T20:07:47.304Z,11.71
2023-10-23T20:10:16.629Z,11.72
2023-10-23T20:12:45.876Z,11.71
2023-10-23T20:15:13.253Z,11.70
2023-10-23T20:17:40.754Z,11.69
2023-10-23T20:20:09.994Z,11.68
2023-10-23T20:22:37.343Z,11.66
2023-10-23T20:25:05.340Z,11.64
2023-10-23T20:27:32.893Z,11.60
2023-10-23T20:30:00.321Z,11.57
2023-10-23T20:32:27.897Z,11.53
2023-10-23T20:34:55.619Z,11.49
2023-10-23T20:37:22.965Z,11.45
2023-10-23T20:39:50.270Z,11.43
2023-10-23T20:42:17.747Z,11.42
2023-10-23T20:44:45.405Z,11.41
2023-10-23T20:47:15.720Z,11.41
2023-10-23T20:49:43.511Z,11.40
2023-10-23T20:52:10.864Z,11.39
2023-10-23T20:54:38.149Z,11.38
2023-10-23T20:57:05.811Z,11.38
2023-10-23T20:59:33.091Z,11.37
2023-10-23T21:02:00.697Z,11.36
2023-10-23T21:04:28.521Z,11.35
2023-10-23T21:06:56.039Z,11.33
2023-10-23T21:09:23.400Z,11.31
2023-10-23T21:11:51.436Z,11.28
2023-10-23T21:14:18.793Z,11.26
2023-10-23T21:16:46.258Z,11.25
2023-10-23T21:19:13.860Z,11.23
2023-10-23T21:21:41.241Z,11.21
2023-10-23T21:24:08.689Z,11.17
2023-10-23T21:26:36.026Z,11.13
2023-10-23T21:29:22.405Z,11.09
2023-10-23T21:31:51.112Z,11.06
2023-10-23T21:34:18.754Z,11.03
2023-10-23T21:36:46.270Z,11.00
2023-10-23T21:39:13.550Z,10.98
2023-10-23T21:41:41.459Z,10.98
2023-10-23T21:44:09.098Z,10.97
2023-10-23T21:46:36.520Z,10.97
2023-10-23T21:49:11.292Z,10.96
2023-10-23T21:51:39.540Z,10.96
2023-10-23T21:54:07.334Z,10.96
2023-10-23T21:56:45.155Z,10.96
2023-10-23T21:59:22.757Z,10.96
2023-10-23T22:01:53.731Z,10.96
2023-10-23T22:04:21.871Z,10.97
2023-10-23T22:06:49.886Z,10.97
2023-10-23T22:09:17.682Z,10.96
2023-10-23T22:11:45.420Z,10.95
2023-10-23T22:14:12.987Z,10.95
2023-10-23T22:16:40.308Z,10.95
2023-10-23T22:19:07.774Z,10.96
2023-10-23T22:21:35.187Z,10.96
2023-10-23T22:24:02.935Z,10.96
2023-10-23T22:26:30.875Z,10.96
2023-10-23T22:28:58.200Z,10.96
2023-10-23T22:31:25.660Z,10.96
2023-10-23T22:33:53.082Z,10.96
2023-10-23T22:36:20.520Z,10.97
2023-10-23T22:38:47.922Z,10.98
2023-10-23T22:41:15.534Z,10.98
2023-10-23T22:43:42.891Z,10.99
2023-10-23T22:46:10.472Z,11.01
2023-10-23T22:48:37.894Z,11.01
2023-10-23T22:51:05.592Z,11.02
2023-10-23T22:53:36.799Z,11.05
2023-10-23T22:56:04.798Z,11.09
2023-10-23T22:58:32.551Z,11.12
2023-10-23T23:01:00.444Z,11.15
2023-10-23T23:03:28.114Z,11.17
2023-10-23T23:05:58.012Z,11.18
2023-10-23T23:08:25.329Z,11.20
2023-10-23T23:10:53.065Z,11.20
2023-10-23T23:13:20.608Z,11.22
2023-10-23T23:15:48.015Z,11.23
2023-10-23T23:18:15.437Z,11.24
2023-10-23T23:20:43.032Z,11.25
2023-10-23T23:23:10.360Z,11.25
2023-10-23T23:25:37.871Z,11.25
2023-10-23T23:28:05.517Z,11.26
2023-10-23T23:30:32.918Z,11.24
2023-10-23T23:33:00.364Z,11.21
2023-10-23T23:35:27.760Z,11.17
2023-10-23T23:37:55.025Z,11.11
2023-10-23T23:40:22.427Z,11.06
2023-10-23T23:42:49.847Z,11.01
2023-10-23T23:45:17.182Z,10.97
2023-10-23T23:47:44.470Z,10.95
2023-10-23T23:50:11.830Z,10.92
2023-10-23T23:52:39.129Z,10.90
2023-10-23T23:55:06.999Z,10.88
2023-10-23T23:57:35.114Z,10.87
